Time;durP1;ratioP1;P1;durP2;ratioP2;P2;SDS_P1;SDS_P2;PMS_P1;PMS_P2;Temp;Humidity;BMP_temperature;BMP_pressure;BME280_temperature;BME280_humidity;BME280_pressure;Samples;Min_cycle;Max_cycle;Signal;HPM_P1;HPM_P2
2022/10/03 00:01:47;;;;;;;1.80;0.40;;;10.00;99.90;11.10;96976.00;;;;5017640;28;20213;-85
2022/10/03 00:05:04;;;;;;;0.40;0.40;;;10.00;99.90;10.90;96988.00;;;;5027623;28;20222;-86
2022/10/03 00:08:08;;;;;;;1.37;0.57;;;9.90;99.90;11.00;96991.00;;;;5029258;28;20205;-85
2022/10/03 00:11:06;;;;;;;1.60;0.30;;;9.60;99.90;11.20;96988.00;;;;5030269;28;20204;-85
2022/10/03 00:14:03;;;;;;;0.30;0.30;;;9.80;99.90;11.10;96984.00;;;;5023747;28;20229;-87
2022/10/03 00:17:03;;;;;;;0.40;0.40;;;9.80;99.90;10.90;96993.00;;;;5030634;28;20209;-86
2022/10/03 00:20:03;;;;;;;0.60;0.50;;;9.80;99.90;10.90;96988.00;;;;5028016;28;20255;-86
2022/10/03 00:23:00;;;;;;;0.70;0.70;;;9.70;99.90;11.00;96986.00;;;;5030749;28;20257;-85
2022/10/03 00:26:25;;;;;;;0.50;0.50;;;9.70;99.90;10.90;97008.00;;;;5025019;28;20265;-85
2022/10/03 00:29:42;;;;;;;4.30;0.67;;;9.70;99.90;10.70;97007.00;;;;5014298;28;20662;-87
2022/10/03 00:32:55;;;;;;;0.40;0.40;;;9.70;99.90;10.40;97005.00;;;;5013982;28;20234;-86
2022/10/03 00:36:02;;;;;;;2.77;0.50;;;9.50;99.90;10.70;97006.00;;;;5027169;28;20293;-86
2022/10/03 00:39:28;;;;;;;4.63;0.40;;;9.50;99.90;10.80;97011.00;;;;5027060;28;20306;-84
2022/10/03 00:42:59;;;;;;;3.60;0.60;;;9.50;99.90;10.50;97016.00;;;;5022161;28;20205;-85
2022/10/03 00:46:31;;;;;;;0.50;0.50;;;9.50;99.90;10.10;97015.00;;;;5027919;28;20291;-86
2022/10/03 00:50:00;;;;;;;0.40;0.40;;;9.30;99.90;10.30;97022.00;;;;5026022;28;20225;-85
2022/10/03 00:53:05;;;;;;;0.60;0.57;;;9.20;99.90;10.50;97019.00;;;;5031357;28;20279;-86
2022/10/03 00:56:22;;;;;;;0.60;0.60;;;9.20;99.90;10.40;97008.00;;;;5026901;28;20201;-86
2022/10/03 00:59:39;;;;;;;0.50;0.50;;;9.30;99.90;10.50;97011.00;;;;5023986;28;20676;-85
2022/10/03 01:02:44;;;;;;;0.30;0.30;;;9.30;99.90;10.50;97009.00;;;;5024013;28;20209;-88
2022/10/03 01:05:49;;;;;;;0.30;0.30;;;9.30;99.90;10.00;97017.00;;;;5027103;28;20255;-86
2022/10/03 01:08:56;;;;;;;0.87;0.53;;;9.20;99.90;10.00;97010.00;;;;5029563;28;20247;-86
2022/10/03 01:12:07;;;;;;;0.40;0.40;;;9.10;99.90;9.80;97008.00;;;;5019726;28;20216;-85
2022/10/03 01:15:20;;;;;;;0.87;0.50;;;9.00;99.90;9.70;97003.00;;;;5024380;28;20727;-86
2022/10/03 01:18:25;;;;;;;5.53;0.60;;;8.90;99.90;9.90;97008.00;;;;5028297;28;20205;-86
2022/10/03 01:21:31;;;;;;;1.53;0.40;;;8.80;99.90;10.00;97006.00;;;;5021720;28;20229;-86
2022/10/03 01:24:50;;;;;;;2.83;0.47;;;8.90;99.90;9.90;97006.00;;;;5021483;28;20696;-84
2022/10/03 01:31:01;;;;;;;0.73;0.53;;;8.80;99.90;9.70;96998.00;;;;5025547;28;20231;-87
2022/10/03 01:34:01;;;;;;;0.70;0.70;;;8.70;99.90;9.90;96997.00;;;;5022366;28;20229;-85
2022/10/03 01:37:08;;;;;;;0.50;0.30;;;8.70;99.90;10.10;97007.00;;;;5030170;28;20240;-85
2022/10/03 01:40:07;;;;;;;1.13;0.60;;;8.70;99.90;10.20;96998.00;;;;5028224;28;20743;-85
2022/10/03 01:43:13;;;;;;;0.43;0.37;;;8.70;99.90;10.00;96997.00;;;;5018460;28;20635;-86
2022/10/03 01:46:17;;;;;;;0.50;0.43;;;8.80;99.90;10.20;97002.00;;;;5029956;28;20714;-86
2022/10/03 01:49:18;;;;;;;2.53;0.50;;;8.90;99.90;10.00;96983.00;;;;5023447;28;20208;-85
2022/10/03 01:52:16;;;;;;;0.70;0.63;;;8.90;99.90;9.90;96991.00;;;;5024711;28;20250;-86
2022/10/03 01:55:19;;;;;;;0.40;0.40;;;8.90;99.90;10.00;97000.00;;;;5029849;28;20667;-85
2022/10/03 01:58:12;;;;;;;0.83;0.30;;;8.90;99.90;10.10;96974.00;;;;5022113;28;20208;-86
2022/10/03 02:01:10;;;;;;;0.40;0.40;;;8.80;99.90;9.90;96972.00;;;;5020808;28;20287;-87
2022/10/03 02:04:11;;;;;;;0.43;0.30;;;8.80;99.90;9.70;96962.00;;;;5028393;28;20223;-87
2022/10/03 02:07:07;;;;;;;0.50;0.50;;;8.70;99.90;9.80;96974.00;;;;5025224;28;20205;-87
2022/10/03 02:10:08;;;;;;;5.27;0.77;;;8.60;99.90;9.60;96975.00;;;;5018653;28;20238;-87
2022/10/03 02:13:08;;;;;;;1.50;0.40;;;8.60;99.90;9.50;96985.00;;;;5020865;28;20618;-84
2022/10/03 02:16:09;;;;;;;0.40;0.40;;;8.50;99.90;9.80;96980.00;;;;5011974;28;20213;-86
2022/10/03 02:19:06;;;;;;;2.10;0.73;;;8.50;99.90;9.60;96989.00;;;;5028523;28;20205;-86
2022/10/03 02:21:59;;;;;;;1.37;1.03;;;8.50;99.90;9.80;96996.00;;;;5030374;28;20204;-86
2022/10/03 02:25:00;;;;;;;0.70;0.67;;;8.50;99.90;9.70;97000.00;;;;5028319;28;20329;-85
2022/10/03 02:28:35;;;;;;;1.33;0.50;;;8.50;99.90;9.80;96999.00;;;;5020726;28;20193;-85
2022/10/03 02:31:59;;;;;;;0.70;0.50;;;8.50;99.90;9.90;96989.00;;;;5024458;28;20232;-87
2022/10/03 02:35:13;;;;;;;0.40;0.40;;;8.50;99.90;9.40;96993.00;;;;5026944;28;20213;-86
2022/10/03 02:38:59;;;;;;;0.53;0.53;;;8.40;99.90;9.70;97004.00;;;;5032673;28;20212;-85
2022/10/03 02:42:26;;;;;;;1.53;0.30;;;8.40;99.90;9.80;97014.00;;;;5028027;28;20622;-86
2022/10/03 02:46:16;;;;;;;0.63;0.50;;;8.40;99.90;9.90;97011.00;;;;5019490;28;20276;-87
2022/10/03 02:50:03;;;;;;;0.67;0.40;;;8.50;99.90;9.60;97014.00;;;;4995153;28;20251;-86
2022/10/03 02:53:47;;;;;;;0.50;0.50;;;8.50;99.90;9.90;97016.00;;;;4974965;28;20830;-84
2022/10/03 02:57:21;;;;;;;0.50;0.40;;;8.50;99.90;9.40;97023.00;;;;5008514;28;20197;-86
2022/10/03 03:00:15;;;;;;;0.30;0.30;;;8.40;99.90;9.20;97021.00;;;;5002280;28;20205;-88
2022/10/03 03:03:37;;;;;;;0.43;0.40;;;8.40;99.90;9.30;97022.00;;;;5026517;28;20253;-86
2022/10/03 03:07:01;;;;;;;0.50;0.50;;;8.30;99.90;9.60;97040.00;;;;5025241;28;20201;-86
2022/10/03 03:11:02;;;;;;;2.13;0.40;;;8.30;99.90;9.40;97032.00;;;;5023077;28;20194;-86
2022/10/03 03:14:41;;;;;;;0.47;0.47;;;8.30;99.90;9.30;97037.00;;;;4956795;28;20228;-87
2022/10/03 03:17:40;;;;;;;0.40;0.40;;;8.30;99.90;9.30;97033.00;;;;5020371;28;20198;-86
2022/10/03 03:20:44;;;;;;;2.67;0.80;;;8.30;99.90;9.10;97041.00;;;;5021871;28;20819;-87
2022/10/03 03:23:51;;;;;;;0.70;0.53;;;8.30;99.90;9.60;97043.00;;;;5021490;28;20212;-86
2022/10/03 03:27:19;;;;;;;0.70;0.70;;;8.30;99.90;9.80;97053.00;;;;5029126;28;20197;-86
2022/10/03 03:30:14;;;;;;;0.40;0.40;;;8.30;99.90;9.50;97044.00;;;;5002441;28;20208;-85
2022/10/03 03:33:16;;;;;;;8.77;0.90;;;8.40;99.90;9.70;97044.00;;;;5026566;28;20315;-86
2022/10/03 03:36:19;;;;;;;1.03;0.40;;;8.40;99.90;9.80;97056.00;;;;5026063;28;20202;-85
2022/10/03 03:39:33;;;;;;;2.00;0.40;;;8.50;99.90;9.70;97051.00;;;;5023000;28;20213;-85
2022/10/03 03:42:59;;;;;;;2.00;0.50;;;8.40;99.90;9.50;97042.00;;;;5026472;28;20197;-85
2022/10/03 03:46:06;;;;;;;0.40;0.40;;;8.40;99.90;9.60;97052.00;;;;5022319;28;20205;-86
2022/10/03 03:49:09;;;;;;;0.40;0.40;;;8.40;99.90;9.90;97040.00;;;;5025000;28;20214;-86
2022/10/03 03:52:20;;;;;;;0.40;0.40;;;8.50;99.90;9.90;97053.00;;;;5025946;28;20228;-85
2022/10/03 03:55:40;;;;;;;0.70;0.60;;;8.50;99.90;9.80;97056.00;;;;5030300;28;20205;-85
2022/10/03 03:58:40;;;;;;;0.80;0.50;;;8.50;99.90;9.80;97054.00;;;;5029550;28;20283;-85
2022/10/03 04:02:05;;;;;;;1.57;0.60;;;8.50;99.90;9.80;97049.00;;;;5032503;28;20206;-85
2022/10/03 04:05:15;;;;;;;0.47;0.47;;;8.50;99.90;9.80;97043.00;;;;5051785;28;20232;-84
2022/10/03 04:08:26;;;;;;;1.73;0.50;;;8.50;99.90;9.90;97056.00;;;;5055243;28;20209;-85
2022/10/03 04:11:36;;;;;;;0.67;0.50;;;8.50;99.90;9.70;97045.00;;;;5032886;28;20224;-86
2022/10/03 04:15:00;;;;;;;0.60;0.60;;;8.50;99.90;9.40;97059.00;;;;5028130;28;20221;-86
2022/10/03 04:21:58;;;;;;;0.40;0.40;;;8.30;99.90;9.60;97049.00;;;;5032740;28;20283;-86
2022/10/03 04:25:19;;;;;;;2.33;0.63;;;8.30;99.90;9.50;97051.00;;;;5006143;28;20251;-85
2022/10/03 04:28:52;;;;;;;0.77;0.70;;;7.60;99.90;9.30;97038.00;;;;5024415;28;20201;-86
2022/10/03 04:31:50;;;;;;;0.73;0.60;;;8.20;99.90;9.20;97040.00;;;;5021429;28;20303;-85
2022/10/03 04:34:59;;;;;;;2.33;0.40;;;8.20;99.90;9.50;97042.00;;;;5032533;28;20221;-86
2022/10/03 04:37:54;;;;;;;0.47;0.40;;;8.20;99.90;9.50;97058.00;;;;5030376;28;20224;-85
2022/10/03 04:40:50;;;;;;;0.60;0.40;;;8.20;99.90;9.50;97050.00;;;;5028091;28;20209;-86
2022/10/03 04:43:51;;;;;;;0.50;0.40;;;8.10;99.90;9.40;97045.00;;;;5030377;28;20267;-85
2022/10/03 04:46:48;;;;;;;3.90;0.50;;;6.70;99.90;9.60;97045.00;;;;5025929;28;20587;-87
2022/10/03 04:49:43;;;;;;;0.53;0.40;;;8.20;99.90;9.60;97049.00;;;;5021768;28;20208;-86
2022/10/03 04:52:39;;;;;;;0.40;0.40;;;8.20;99.90;9.50;97050.00;;;;5032107;28;20236;-86
2022/10/03 04:55:38;;;;;;;0.73;0.60;;;8.30;99.90;9.20;97051.00;;;;5031236;28;20255;-86
2022/10/03 04:58:37;;;;;;;0.50;0.50;;;8.20;99.90;9.50;97044.00;;;;5025922;28;20673;-86
2022/10/03 05:01:36;;;;;;;2.20;0.57;;;8.20;99.90;9.50;97053.00;;;;5029460;28;20209;-86
2022/10/03 05:04:35;;;;;;;0.80;0.70;;;8.30;99.90;9.80;97066.00;;;;5033351;28;20227;-86
2022/10/03 05:07:35;;;;;;;2.10;0.87;;;8.40;99.90;9.80;97072.00;;;;5020536;28;20759;-86
2022/10/03 05:10:51;;;;;;;0.57;0.53;;;8.40;99.90;9.80;97066.00;;;;5031274;28;20193;-87
2022/10/03 05:14:05;;;;;;;0.83;0.63;;;8.40;99.90;9.90;97081.00;;;;5015634;28;20218;-85
2022/10/03 05:17:07;;;;;;;1.20;0.73;;;8.50;99.90;10.00;97075.00;;;;5030668;28;20212;-86
2022/10/03 05:20:24;;;;;;;4.10;0.70;;;8.50;99.90;9.90;97091.00;;;;5027512;28;20770;-86
2022/10/03 05:23:34;;;;;;;2.20;0.50;;;8.60;99.90;9.70;97088.00;;;;5030647;28;20682;-85
2022/10/03 05:26:33;;;;;;;1.03;0.63;;;8.50;99.90;9.80;97097.00;;;;5029042;28;20201;-86
2022/10/03 05:29:44;;;;;;;4.20;0.70;;;8.50;99.90;9.80;97097.00;;;;5027939;28;20209;-87
2022/10/03 05:32:42;;;;;;;1.23;0.83;;;8.50;99.90;9.90;97096.00;;;;5025573;28;20274;-87
2022/10/03 05:35:46;;;;;;;0.50;0.50;;;8.50;99.90;9.90;97091.00;;;;5032456;28;20208;-87
2022/10/03 05:39:36;;;;;;;1.07;0.87;;;8.50;99.90;10.10;97094.00;;;;5026874;28;20222;-86
2022/10/03 05:42:39;;;;;;;3.00;0.93;;;8.60;99.90;10.00;97092.00;;;;5025114;28;20205;-87
2022/10/03 05:45:37;;;;;;;3.43;0.70;;;8.60;99.90;10.10;97099.00;;;;5024046;28;20197;-87
2022/10/03 05:48:42;;;;;;;3.70;2.90;;;8.70;99.90;10.10;97104.00;;;;5026649;28;20209;-87
2022/10/03 05:52:04;;;;;;;4.20;2.93;;;8.70;99.90;10.00;97098.00;;;;5022503;28;20356;-88
2022/10/03 05:55:26;;;;;;;10.70;4.40;;;8.70;99.90;10.00;97114.00;;;;5025250;28;20308;-88
2022/10/03 05:59:06;;;;;;;4.97;4.53;;;8.70;99.90;10.20;97103.00;;;;5021641;28;20263;-88
2022/10/03 06:02:30;;;;;;;3.07;2.77;;;8.80;99.90;10.30;97113.00;;;;5024581;28;20209;-87
2022/10/03 06:05:31;;;;;;;2.37;2.17;;;8.80;99.90;10.40;97129.00;;;;5027506;28;20202;-87
2022/10/03 06:08:58;;;;;;;1.83;1.30;;;8.90;99.90;10.50;97126.00;;;;5026925;28;20683;-87
2022/10/03 06:12:06;;;;;;;1.13;0.97;;;8.90;99.90;10.60;97129.00;;;;5034531;28;20256;-87
2022/10/03 06:15:53;;;;;;;3.13;1.60;;;9.00;99.90;10.10;97137.00;;;;5032904;28;20680;-87
2022/10/03 06:19:09;;;;;;;4.63;1.77;;;9.00;99.90;10.10;97140.00;;;;5028335;28;20289;-88
2022/10/03 06:22:58;;;;;;;2.17;1.70;;;9.00;99.90;9.90;97131.00;;;;5026801;28;20205;-87
2022/10/03 06:26:25;;;;;;;0.80;0.80;;;8.90;99.90;10.00;97132.00;;;;5023805;28;20210;-87
2022/10/03 06:29:48;;;;;;;1.63;1.10;;;8.80;99.90;10.20;97133.00;;;;5030245;28;20217;-87
2022/10/03 06:33:30;;;;;;;4.30;1.10;;;8.90;99.90;9.60;97133.00;;;;5004161;28;20230;-87
2022/10/03 06:36:36;;;;;;;2.40;0.77;;;8.90;99.90;9.70;97137.00;;;;5016321;28;20404;-87
2022/10/03 06:40:20;;;;;;;3.90;0.77;;;8.70;99.90;10.30;97138.00;;;;5022309;28;20284;-87
2022/10/03 06:43:47;;;;;;;3.30;1.10;;;8.80;99.90;10.20;97147.00;;;;5003356;28;20655;-87
2022/10/03 06:47:11;;;;;;;1.00;0.80;;;8.90;99.90;10.00;97155.00;;;;5031083;28;20197;-88
2022/10/03 06:50:45;;;;;;;1.10;1.00;;;9.20;99.90;10.20;97149.00;;;;5025498;28;20208;-88
2022/10/03 06:54:16;;;;;;;3.93;0.93;;;8.90;99.90;10.70;97160.00;;;;5034617;28;20255;-86
2022/10/03 06:57:37;;;;;;;1.70;1.60;;;9.10;99.90;10.70;97163.00;;;;5032927;28;20260;-86
2022/10/03 07:00:45;;;;;;;1.07;0.90;;;9.20;99.90;10.80;97160.00;;;;5024410;28;20205;-87
2022/10/03 07:04:06;;;;;;;1.30;1.20;;;9.30;99.90;10.60;97162.00;;;;5028045;28;20224;-87
2022/10/03 07:07:39;;;;;;;0.83;0.83;;;9.40;99.90;10.40;97155.00;;;;5026973;28;20573;-87
2022/10/03 07:10:56;;;;;;;0.80;0.80;;;9.40;99.90;10.60;97157.00;;;;5028891;28;20197;-89
2022/10/03 07:14:25;;;;;;;1.20;1.00;;;9.40;99.90;10.70;97168.00;;;;5029131;28;20237;-86
2022/10/03 07:17:41;;;;;;;0.93;0.83;;;9.50;99.90;11.20;97169.00;;;;5029252;28;20201;-86
2022/10/03 07:21:02;;;;;;;1.10;0.90;;;9.50;99.90;11.00;97171.00;;;;5016581;28;20657;-87
2022/10/03 07:24:41;;;;;;;3.50;2.43;;;9.60;99.90;11.00;97179.00;;;;5023690;28;20275;-86
2022/10/03 07:27:48;;;;;;;5.27;1.83;;;9.70;99.90;11.20;97169.00;;;;5030374;28;20224;-86
2022/10/03 07:31:01;;;;;;;3.47;1.60;;;9.80;99.90;11.10;97180.00;;;;5022421;28;20260;-88
2022/10/03 07:34:20;;;;;;;1.07;1.07;;;9.80;99.90;11.40;97181.00;;;;5028376;28;20233;-87
2022/10/03 07:41:28;;;;;;;0.83;0.83;;;9.90;99.90;11.90;97173.00;;;;5033870;28;20205;-87
2022/10/03 07:45:13;;;;;;;1.23;1.13;;;10.20;99.90;11.90;97176.00;;;;5023779;28;20249;-87
2022/10/03 07:48:49;;;;;;;2.07;0.90;;;10.30;99.90;11.70;97183.00;;;;5019058;28;20197;-89
2022/10/03 07:51:53;;;;;;;0.80;0.80;;;10.40;99.90;11.80;97168.00;;;;5022195;28;20193;-86
2022/10/03 07:55:25;;;;;;;1.10;1.00;;;10.50;99.90;11.90;97185.00;;;;5026189;28;20225;-86
2022/10/03 07:58:45;;;;;;;1.47;1.37;;;10.50;99.90;12.30;97183.00;;;;5027314;28;20209;-86
2022/10/03 08:02:08;;;;;;;0.67;0.67;;;10.60;99.90;12.50;97188.00;;;;5019638;28;20205;-87
2022/10/03 08:05:20;;;;;;;1.33;0.90;;;10.80;99.90;12.10;97178.00;;;;5022636;28;20274;-86
2022/10/03 08:08:49;;;;;;;2.10;0.77;;;10.80;99.90;12.60;97193.00;;;;5027795;28;20229;-86
2022/10/03 08:12:37;;;;;;;1.10;1.00;;;10.90;99.90;13.00;97198.00;;;;5008333;28;20201;-86
2022/10/03 08:15:43;;;;;;;0.90;0.90;;;11.10;99.90;12.60;97190.00;;;;5019101;28;20269;-87
2022/10/03 08:19:16;;;;;;;3.43;1.30;;;11.20;99.90;12.40;97195.00;;;;5027090;28;20206;-87
2022/10/03 08:22:16;;;;;;;1.53;0.90;;;11.20;99.90;12.60;97190.00;;;;5006398;28;20258;-86
2022/10/03 08:25:27;;;;;;;0.90;0.90;;;11.20;99.90;12.80;97194.00;;;;5025842;28;20197;-86
2022/10/03 08:28:53;;;;;;;1.27;1.07;;;11.30;99.90;13.20;97199.00;;;;5025890;28;20719;-88
2022/10/03 08:32:33;;;;;;;1.23;1.13;;;11.40;99.90;13.30;97195.00;;;;5025216;28;20220;-87
2022/10/03 08:36:12;;;;;;;1.70;1.60;;;11.60;99.90;13.00;97202.00;;;;5023709;28;20263;-87
2022/10/03 08:39:12;;;;;;;0.70;0.70;;;11.60;99.90;12.90;97206.00;;;;5024809;28;20277;-87
2022/10/03 08:42:54;;;;;;;5.77;3.70;;;11.60;99.90;12.60;97205.00;;;;5023081;28;20222;-86
2022/10/03 08:46:02;;;;;;;2.07;1.30;;;11.60;99.90;13.00;97202.00;;;;5028309;28;20201;-86
2022/10/03 08:49:06;;;;;;;1.30;1.20;;;11.60;99.90;13.20;97200.00;;;;5040109;28;20631;-87
2022/10/03 08:52:09;;;;;;;1.40;1.17;;;11.60;99.90;13.50;97208.00;;;;5049523;28;20209;-88
2022/10/03 08:55:41;;;;;;;3.50;1.03;;;11.70;99.90;13.80;97211.00;;;;5044626;28;20225;-87
2022/10/03 08:59:19;;;;;;;1.13;0.87;;;11.90;99.90;13.60;97225.00;;;;4953280;28;20231;-87
2022/10/03 09:03:11;;;;;;;3.13;2.77;;;12.00;99.90;13.30;97218.00;;;;5028249;28;20246;-87
2022/10/03 09:07:13;;;;;;;1.00;1.00;;;12.00;99.90;13.00;97222.00;;;;5028849;28;20204;-87
2022/10/03 09:10:50;;;;;;;1.53;1.23;;;11.90;99.90;13.30;97220.00;;;;5025836;28;20193;-89
2022/10/03 09:14:26;;;;;;;2.00;1.23;;;11.60;99.90;13.60;97224.00;;;;5027237;28;20244;-87
2022/10/03 09:18:11;;;;;;;1.47;1.37;;;11.90;99.90;13.90;97216.00;;;;5035452;28;20209;-87
2022/10/03 09:21:37;;;;;;;3.33;1.43;;;12.10;99.90;13.60;97214.00;;;;5022787;28;20204;-88
2022/10/03 09:25:08;;;;;;;4.10;1.13;;;12.20;99.90;13.80;97220.00;;;;5026033;28;20221;-87
2022/10/03 09:29:16;;;;;;;3.80;1.40;;;12.20;99.90;14.10;97216.00;;;;5029342;28;20237;-88
2022/10/03 09:32:58;;;;;;;3.33;1.40;;;12.30;99.90;14.40;97225.00;;;;4996854;28;20321;-87
2022/10/03 09:36:23;;;;;;;1.80;1.10;;;12.50;99.90;14.40;97227.00;;;;5025411;28;20221;-87
2022/10/03 09:40:27;;;;;;;4.40;2.07;;;12.70;99.90;14.60;97228.00;;;;5027058;28;20217;-88
2022/10/03 09:44:05;;;;;;;2.10;1.00;;;12.80;99.90;14.80;97221.00;;;;5016376;28;20303;-88
2022/10/03 09:47:52;;;;;;;1.40;1.13;;;12.90;99.90;14.90;97231.00;;;;5025924;28;20707;-89
2022/10/03 09:51:24;;;;;;;1.33;1.10;;;12.90;99.90;14.50;97231.00;;;;5021917;28;20205;-87
2022/10/03 09:54:58;;;;;;;3.33;1.40;;;13.10;99.90;14.90;97231.00;;;;5024190;28;20702;-88
2022/10/03 09:58:38;;;;;;;2.90;1.50;;;13.10;99.90;15.00;97214.00;;;;4993174;28;20206;-88
2022/10/03 10:01:33;;;;;;;1.90;1.13;;;13.20;99.90;14.90;97218.00;;;;4971009;28;20255;-88
2022/10/03 10:04:59;;;;;;;1.60;1.00;;;13.20;99.90;15.30;97210.00;;;;5023287;28;20227;-88
2022/10/03 10:08:48;;;;;;;2.50;1.37;;;13.40;99.90;15.60;97223.00;;;;5021936;28;20213;-87
2022/10/03 10:12:26;;;;;;;2.97;1.40;;;13.50;99.90;15.60;97221.00;;;;4989559;28;20197;-87
2022/10/03 10:16:07;;;;;;;3.37;1.07;;;13.70;99.90;15.80;97209.00;;;;4995701;28;20244;-87
2022/10/03 10:19:23;;;;;;;2.53;1.20;;;13.80;99.90;15.70;97218.00;;;;5028330;28;20201;-87
2022/10/03 10:23:09;;;;;;;2.03;1.00;;;13.90;99.90;16.00;97214.00;;;;5029669;28;21668;-86
2022/10/03 10:26:53;;;;;;;2.23;0.83;;;14.00;99.90;16.20;97204.00;;;;5026794;28;20194;-87
2022/10/03 10:30:34;;;;;;;2.10;1.00;;;14.30;99.90;16.00;97206.00;;;;5027177;28;20209;-86
2022/10/03 10:34:18;;;;;;;2.70;1.47;;;14.20;99.90;16.50;97203.00;;;;5021481;28;20225;-87
2022/10/03 10:37:44;;;;;;;1.43;1.20;;;14.40;99.90;16.50;97208.00;;;;5023937;28;20217;-87
2022/10/03 10:41:32;;;;;;;0.93;0.80;;;14.50;99.90;16.60;97210.00;;;;5021456;28;20285;-86
2022/10/03 10:45:27;;;;;;;4.20;1.60;;;14.60;99.90;16.70;97206.00;;;;5017844;28;20643;-87
2022/10/03 10:49:08;;;;;;;3.40;1.83;;;14.80;99.90;16.90;97213.00;;;;5024980;28;20266;-86
2022/10/03 10:52:54;;;;;;;6.23;1.17;;;14.90;99.90;16.90;97210.00;;;;5030522;28;20233;-88
2022/10/03 10:56:41;;;;;;;3.40;1.40;;;14.90;99.90;17.10;97216.00;;;;4989205;28;20210;-87
2022/10/03 11:00:15;;;;;;;1.67;0.73;;;15.00;99.90;16.80;97209.00;;;;5025842;28;20264;-87
2022/10/03 11:04:03;;;;;;;2.57;1.27;;;15.10;99.90;17.20;97212.00;;;;5030221;28;20280;-87
2022/10/03 11:07:33;;;;;;;2.00;1.80;;;15.10;99.90;17.10;97217.00;;;;5000532;28;20202;-88
2022/10/03 11:10:36;;;;;;;4.30;1.80;;;15.20;99.90;17.20;97214.00;;;;5003922;28;20201;-89
2022/10/03 11:14:29;;;;;;;1.77;1.63;;;15.30;99.90;17.60;97213.00;;;;5030189;28;20224;-87
2022/10/03 11:18:04;;;;;;;1.53;1.00;;;15.50;99.90;17.60;97202.00;;;;4959516;28;20235;-88
2022/10/03 11:21:37;;;;;;;4.17;1.43;;;15.60;99.90;17.70;97199.00;;;;4944889;28;20213;-87
2022/10/03 11:25:53;;;;;;;1.30;1.20;;;15.70;99.90;17.70;97199.00;;;;4995263;28;20639;-88
2022/10/03 11:29:43;;;;;;;4.50;0.60;;;15.80;99.90;18.20;97196.00;;;;5057614;23;20309;-91
2022/10/03 11:33:33;;;;;;;1.30;1.00;;;16.00;99.90;18.70;97203.00;;;;5066754;28;20204;-91
2022/10/03 11:37:18;;;;;;;1.53;1.00;;;16.30;99.90;18.60;97205.00;;;;5038741;28;20207;-92
2022/10/03 11:40:35;;;;;;;1.37;0.87;;;16.40;99.90;18.70;97206.00;;;;5044626;28;20192;-91
2022/10/03 11:44:03;;;;;;;3.27;0.73;;;16.60;99.90;18.20;97209.00;;;;5044878;28;20319;-91
2022/10/03 11:47:22;;;;;;;1.23;0.60;;;16.50;99.90;18.70;97183.00;;;;5045830;28;20203;-91
2022/10/03 11:50:54;;;;;;;0.40;0.40;;;16.50;99.90;19.00;97212.00;;;;5044915;28;20193;-92
2022/10/03 11:53:48;;;;;;;2.53;0.93;;;16.70;99.90;18.90;97206.00;;;;5043391;28;20231;-91
2022/10/03 11:56:41;;;;;;;0.87;0.63;;;16.80;99.90;18.90;97218.00;;;;5044540;28;20213;-91
2022/10/03 11:59:41;;;;;;;0.80;0.80;;;16.90;99.90;18.60;97233.00;;;;5041866;28;20193;-90
2022/10/03 12:03:05;;;;;;;0.70;0.53;;;16.90;99.90;18.60;97221.00;;;;5045895;28;20193;-91
2022/10/03 12:09:23;;;;;;;1.80;0.70;;;16.80;99.90;18.10;97218.00;;;;5030558;28;20198;-92
2022/10/03 12:12:27;;;;;;;1.43;0.93;;;16.60;99.90;18.10;97222.00;;;;5041192;28;20196;-90
2022/10/03 12:15:33;;;;;;;0.80;0.80;;;16.50;99.90;18.30;97209.00;;;;5075003;22;20258;-67
2022/10/03 12:18:33;;;;;;;3.20;1.77;;;16.40;99.90;18.50;97210.00;;;;5058593;28;20265;-67
2022/10/03 12:21:38;;;;;;;0.80;0.70;;;16.50;99.90;18.40;97196.00;;;;5058727;28;20249;-67
2022/10/03 12:24:28;;;;;;;3.33;0.93;;;16.50;99.90;20.20;97212.00;;;;5060223;23;20232;-87
2022/10/03 12:27:30;;;;;;;1.40;1.13;;;17.10;99.90;20.10;97209.00;;;;5059619;28;20205;-87
2022/10/03 12:30:20;;;;;;;2.53;0.90;;;17.50;99.90;20.00;97207.00;;;;5073130;28;20215;-87
2022/10/03 12:33:26;;;;;;;1.00;0.77;;;18.00;99.90;21.00;97207.00;;;;5086081;22;20428;-75
2022/10/03 12:36:19;;;;;;;1.03;0.67;;;18.10;99.90;20.90;97224.00;;;;5054137;28;20601;-75
2022/10/03 12:39:27;;;;;;;0.97;0.63;;;18.50;99.90;20.00;97213.00;;;;5050366;28;20232;-77
2022/10/03 12:42:26;;;;;;;0.50;0.50;;;18.50;99.90;19.80;97212.00;;;;5066139;28;20204;-76
2022/10/03 12:45:26;;;;;;;1.93;0.70;;;18.30;99.90;19.70;97218.00;;;;5064746;28;20239;-76
2022/10/03 12:48:42;;;;;;;0.57;0.50;;;18.10;99.90;19.30;97214.00;;;;5059867;28;20209;-76
2022/10/03 12:51:51;;;;;;;2.07;0.83;;;17.90;99.90;19.00;97207.00;;;;5067286;28;20207;-76
2022/10/03 12:54:51;;;;;;;1.00;0.57;;;17.60;99.90;19.30;97215.00;;;;5060414;28;20772;-76
2022/10/03 12:57:57;;;;;;;1.97;0.60;;;17.50;99.90;19.00;97225.00;;;;5064352;28;20260;-76
2022/10/03 13:00:57;;;;;;;2.20;0.90;;;17.30;99.90;18.60;97230.00;;;;5067952;28;20202;-76
2022/10/03 13:03:53;;;;;;;0.70;0.63;;;17.20;99.90;18.70;97226.00;;;;5053913;28;20239;-75
2022/10/03 13:06:53;;;;;;;2.13;0.60;;;17.00;99.90;18.40;97226.00;;;;5057786;28;20300;-76
2022/10/03 13:10:20;;;;;;;2.57;0.73;;;16.80;99.90;19.90;97156.00;;;;5065711;28;20234;-76
2022/10/03 13:13:26;;;;;;;0.50;0.50;;;17.00;99.90;20.10;97223.00;;;;5066728;28;20195;-75
2022/10/03 13:16:24;;;;;;;1.50;0.77;;;17.60;99.90;20.00;97225.00;;;;5057516;28;20236;-76
2022/10/03 13:19:17;;;;;;;1.93;0.70;;;17.70;99.90;19.80;97170.00;;;;5062121;28;20193;-76
2022/10/03 13:22:29;;;;;;;1.20;0.60;;;17.90;99.70;22.10;97150.00;;;;5056279;28;20208;-75
2022/10/03 13:25:23;;;;;;;0.70;0.60;;;18.60;99.10;20.50;97232.00;;;;5061289;28;20710;-72
2022/10/03 13:28:17;;;;;;;1.97;0.60;;;18.90;91.60;21.50;97224.00;;;;5062516;28;20208;-72
2022/10/03 13:31:16;;;;;;;1.40;0.90;;;19.20;90.40;23.50;97148.00;;;;5063303;28;20208;-72
2022/10/03 13:34:10;;;;;;;;;;;19.90;91.70;25.50;97157.00;;;;5057030;28;20401;-73
2022/10/03 13:37:05;;;;;;;;;;;21.10;91.90;27.30;97209.00;;;;5068201;28;19920;-73
2022/10/03 13:39:55;;;;;;;;;;;22.50;91.00;24.90;97220.00;;;;5060797;28;19927;-72
2022/10/03 13:42:52;;;;;;;;;;;23.00;82.60;26.10;97172.00;;;;5060078;28;19924;-72
2022/10/03 13:45:43;;;;;;;;;;;23.30;76.90;25.20;97190.00;;;;5062540;28;19934;-73
2022/10/03 13:48:32;;;;;;;;;;;23.50;71.80;25.10;97160.00;;;;5067475;28;19987;-73
2022/10/03 13:51:28;;;;;;;;;;;23.50;68.80;24.10;97234.00;;;;5063128;28;20501;-74
2022/10/03 13:54:22;;;;;;;;;;;23.30;67.40;24.80;97183.00;;;;5060780;28;19959;-73
2022/10/03 13:57:15;;;;;;;;;;;22.80;70.30;25.70;97166.00;;;;5063618;28;19986;-73
2022/10/03 14:00:10;;;;;;;;;;;23.20;68.30;26.10;97168.00;;;;5063187;28;20514;-74
2022/10/03 14:03:15;;;;;;;;;;;23.40;67.60;26.40;97205.00;;;;5063228;28;20006;-74
2022/10/03 14:06:19;;;;;;;;;;;23.70;64.00;24.50;97227.00;;;;5067153;28;19982;-79
2022/10/03 14:09:26;;;;;;;;;;;23.50;58.90;26.30;97160.00;;;;5069668;28;20356;-78
2022/10/03 14:12:23;;;;;;;;;;;23.50;62.40;27.10;97158.00;;;;5069385;28;19932;-78
2022/10/03 14:15:32;;;;;;;;;;;24.10;65.80;26.40;97183.00;;;;5063525;28;19928;-77
2022/10/03 14:18:36;;;;;;;;;;;24.70;59.50;25.20;97194.00;;;;5068323;28;20377;-78
2022/10/03 14:21:48;;;;;;;;;;;24.40;59.10;25.10;97165.00;;;;5065055;28;20398;-79
2022/10/03 14:24:45;;;;;;;;;;;24.00;60.10;27.00;97182.00;;;;5066862;28;19920;-77
2022/10/03 14:27:44;;;;;;;;;;;24.20;61.50;26.90;97195.00;;;;5069169;28;19974;-80
2022/10/03 14:30:43;;;;;;;;;;;24.70;59.10;23.30;97191.00;;;;5070397;28;19924;-78
2022/10/03 14:33:46;;;;;;;;;;;24.20;55.10;23.90;97188.00;;;;5068120;28;19928;-72
2022/10/03 14:36:41;;;;;;;;;;;23.60;55.60;26.50;97185.00;;;;5065647;28;19920;-73
2022/10/03 14:39:36;;;;;;;;;;;23.70;58.70;26.90;97198.00;;;;5066738;28;19921;-72
2022/10/03 14:42:52;;;;;;;1.27;0.80;;;24.40;58.70;25.80;97197.00;;;;5065173;28;20492;-72
2022/10/03 14:45:47;;;;;;;2.60;0.75;;;24.50;53.80;25.70;97193.00;;;;5069715;28;20204;-77
2022/10/03 14:48:40;;;;;;;6.50;1.20;;;24.70;54.20;26.90;97197.00;;;;5064804;28;20197;-74
2022/10/03 14:51:34;;;;;;;1.15;0.70;;;24.90;55.80;26.30;97195.00;;;;5062506;28;20236;-78
2022/10/03 14:54:27;;;;;;;1.15;0.68;;;24.70;52.90;27.10;97195.00;;;;5065522;28;20266;-76
2022/10/03 14:57:30;;;;;;;1.27;0.70;;;24.90;53.60;27.20;97188.00;;;;5066226;28;20286;-76